Time,TemperatureF,DewpointF,PressureIn,WindDirection,WindDirectionDegrees,WindSpeedMPH,WindSpeedGustMPH,Humidity,HourlyPrecipIn,Conditions,Clouds,dailyrainin,SoftwareType,DateUTC
2015-04-27 06:41:00,44.0,21.0,-100.00,South,182,1.0,3.0,39,-99.99,,,-99.99,,2015-04-27 13:41:00,
2015-04-27 06:51:00,44.0,21.0,-100.00,South,182,1.0,3.0,39,-99.99,,,-99.99,,2015-04-27 13:51:00,
2015-04-27 07:01:00,44.0,21.0,-100.00,ENE,78,2.0,8.0,39,-99.99,,,-99.99,,2015-04-27 14:01:00,
2015-04-27 07:11:00,43.0,21.0,-100.00,ENE,78,2.0,8.0,42,-99.99,,,-99.99,,2015-04-27 14:11:00,
2015-04-27 07:21:00,43.0,21.0,-100.00,ENE,78,2.0,8.0,42,-99.99,,,-99.99,,2015-04-27 14:21:00,
2015-04-27 07:31:00,43.0,21.0,-100.00,SSE,154,1.0,3.0,42,-99.99,,,-99.99,,2015-04-27 14:31:00,
2015-04-27 07:42:00,45.0,20.0,-100.00,SSE,154,1.0,3.0,36,-99.99,,,-99.99,,2015-04-27 14:42:00,
2015-04-27 08:01:00,45.0,21.0,-100.00,SSW,196,1.0,3.0,37,-99.99,,,-99.99,,2015-04-27 15:01:00,
2015-04-27 08:11:00,45.0,21.0,-100.00,West,280,3.0,5.0,37,-99.99,,,-99.99,,2015-04-27 15:11:00,
2015-04-27 08:21:00,47.0,19.0,-100.00,West,280,3.0,5.0,32,-99.99,,,-99.99,,2015-04-27 15:21:00,
2015-04-27 08:31:00,47.0,19.0,-100.00,West,280,3.0,5.0,32,-99.99,,,-99.99,,2015-04-27 15:31:00,
2015-04-27 08:41:00,48.0,20.0,-100.00,West,268,3.0,6.0,32,-99.99,,,-99.99,,2015-04-27 15:41:00,
2015-04-27 08:52:00,48.0,20.0,-100.00,West,268,3.0,6.0,32,-99.99,,,-99.99,,2015-04-27 15:52:00,
2015-04-27 09:01:00,48.0,20.0,-100.00,NNE,14,2.0,7.0,32,-99.99,,,-99.99,,2015-04-27 16:01:00,
2015-04-27 09:11:00,51.0,20.0,-100.00,NNE,14,2.0,7.0,30,-99.99,,,-99.99,,2015-04-27 16:11:00,
2015-04-27 09:21:00,51.0,20.0,-100.00,East,95,4.0,8.0,30,-99.99,,,-99.99,,2015-04-27 16:21:00,
2015-04-27 09:41:00,50.0,20.0,-100.00,East,95,4.0,8.0,30,-99.99,,,-99.99,,2015-04-27 16:41:00,
2015-04-27 09:51:00,50.0,20.0,-100.00,East,95,4.0,8.0,30,-99.99,,,-99.99,,2015-04-27 16:51:00,
2015-04-27 10:21:00,51.0,21.0,-100.00,ENE,66,4.0,9.0,30,-99.99,,,-99.99,,2015-04-27 17:21:00,
2015-04-27 10:31:00,51.0,21.0,-100.00,NW,312,2.0,5.0,30,-99.99,,,-99.99,,2015-04-27 17:31:00,
2015-04-27 10:42:00,53.0,23.0,-100.00,NW,312,2.0,5.0,31,-99.99,,,-99.99,,2015-04-27 17:42:00,
2015-04-27 10:55:00,53.0,23.0,-100.00,NW,312,2.0,5.0,31,-99.99,,,-99.99,,2015-04-27 17:55:00,
2015-04-27 11:03:00,53.0,23.0,-100.00,NE,49,3.0,9.0,31,-99.99,,,-99.99,,2015-04-27 18:03:00,
2015-04-27 11:11:00,53.0,22.0,-100.00,NE,49,3.0,9.0,29,-99.99,,,-99.99,,2015-04-27 18:11:00,
2015-04-27 11:22:00,53.0,22.0,-100.00,ENE,69,5.0,11.0,29,-99.99,,,-99.99,,2015-04-27 18:22:00,
2015-04-27 11:42:00,53.0,24.0,-100.00,ENE,69,5.0,11.0,31,-99.99,,,-99.99,,2015-04-27 18:42:00,
2015-04-27 12:02:00,53.0,24.0,-100.00,NNE,18,4.0,7.0,31,-99.99,,,-99.99,,2015-04-27 19:02:00,
2015-04-27 12:11:00,53.0,24.0,-100.00,NE,45,4.0,8.0,31,-99.99,,,-99.99,,2015-04-27 19:11:00,
2015-04-27 12:21:00,58.0,26.0,-100.00,NE,45,4.0,8.0,28,-99.99,,,-99.99,,2015-04-27 19:21:00,
2015-04-27 12:31:00,58.0,26.0,-100.00,NE,45,4.0,8.0,28,-99.99,,,-99.99,,2015-04-27 19:31:00,
2015-04-27 12:42:00,58.0,26.0,-100.00,NE,45,4.0,8.0,28,-99.99,,,-99.99,,2015-04-27 19:42:00,
2015-04-27 13:01:00,60.0,26.0,-100.00,ESE,106,4.0,8.0,26,-99.99,,,-99.99,,2015-04-27 20:01:00,
2015-04-27 13:11:00,60.0,26.0,-100.00,ESE,106,4.0,8.0,26,-99.99,,,-99.99,,2015-04-27 20:11:00,
2015-04-27 13:31:00,60.0,24.0,-100.00,SSE,148,2.0,5.0,25,-99.99,,,-99.99,,2015-04-27 20:31:00,
2015-04-27 13:41:00,60.0,24.0,-100.00,SSE,148,2.0,5.0,25,-99.99,,,-99.99,,2015-04-27 20:41:00,
2015-04-27 13:51:00,61.0,25.0,-100.00,NE,49,4.0,7.0,25,-99.99,,,-99.99,,2015-04-27 20:51:00,
2015-04-27 14:01:00,61.0,25.0,-100.00,NE,49,4.0,7.0,25,-99.99,,,-99.99,,2015-04-27 21:01:00,
2015-04-27 14:11:00,61.0,25.0,-100.00,NW,313,2.0,7.0,25,-99.99,,,-99.99,,2015-04-27 21:11:00,
2015-04-27 14:21:00,62.0,25.0,-100.00,NW,313,2.0,7.0,24,-99.99,,,-99.99,,2015-04-27 21:21:00,
2015-04-27 14:32:00,62.0,25.0,-100.00,WNW,301,2.0,4.0,24,-99.99,,,-99.99,,2015-04-27 21:32:00,
2015-04-27 14:41:00,64.0,25.0,-100.00,WNW,301,2.0,4.0,23,-99.99,,,-99.99,,2015-04-27 21:41:00,
2015-04-27 15:01:00,64.0,26.0,-100.00,WSW,258,3.0,6.0,23,-99.99,,,-99.99,,2015-04-27 22:01:00,
2015-04-27 15:11:00,64.0,26.0,-100.00,WSW,258,3.0,6.0,23,-99.99,,,-99.99,,2015-04-27 22:11:00,
2015-04-27 15:21:00,64.0,26.0,-100.00,NNE,18,2.0,8.0,23,-99.99,,,-99.99,,2015-04-27 22:21:00,
2015-04-27 15:41:00,65.0,24.0,-100.00,ESE,117,2.0,4.0,21,-99.99,,,-99.99,,2015-04-27 22:41:00,
2015-04-27 15:51:00,67.0,24.0,-100.00,ESE,117,2.0,4.0,20,-99.99,,,-99.99,,2015-04-27 22:51:00,
2015-04-27 20:41:00,58.0,18.0,-100.00,North,-9999,0.0,1.0,21,-99.99,,,-99.99,,2015-04-28 03:41:00,
2015-04-27 23:11:00,51.0,18.0,-100.00,North,-9999,0.0,0.0,27,-99.99,,,-99.99,,2015-04-28 06:11:00,